sensor_id;sensor_type;location;lat;lon;timestamp;P1;durP1;ratioP1;P2;durP2;ratioP2
8232;SDS011;4157;48.074;9.952;2024-01-27T00:00:20;4.82;;;2.47;;
8232;SDS011;4157;48.074;9.952;2024-01-27T00:02:48;8.50;;;3.92;;
8232;SDS011;4157;48.074;9.952;2024-01-27T00:05:16;7.65;;;4.30;;
8232;SDS011;4157;48.074;9.952;2024-01-27T00:07:44;7.55;;;3.40;;
8232;SDS011;4157;48.074;9.952;2024-01-27T00:10:11;6.10;;;3.00;;
8232;SDS011;4157;48.074;9.952;2024-01-27T00:12:39;4.60;;;2.40;;
8232;SDS011;4157;48.074;9.952;2024-01-27T00:15:09;7.20;;;3.58;;
8232;SDS011;4157;48.074;9.952;2024-01-27T00:17:36;6.50;;;3.63;;
8232;SDS011;4157;48.074;9.952;2024-01-27T00:20:05;5.07;;;2.95;;
8232;SDS011;4157;48.074;9.952;2024-01-27T00:22:33;5.20;;;3.15;;
8232;SDS011;4157;48.074;9.952;2024-01-27T00:25:01;9.15;;;4.18;;
8232;SDS011;4157;48.074;9.952;2024-01-27T00:27:29;6.45;;;3.80;;
8232;SDS011;4157;48.074;9.952;2024-01-27T00:29:56;5.82;;;3.28;;
8232;SDS011;4157;48.074;9.952;2024-01-27T00:32:25;7.70;;;3.92;;
8232;SDS011;4157;48.074;9.952;2024-01-27T00:34:53;5.35;;;2.90;;
8232;SDS011;4157;48.074;9.952;2024-01-27T00:37:21;7.25;;;4.25;;
8232;SDS011;4157;48.074;9.952;2024-01-27T00:39:48;5.22;;;3.00;;
8232;SDS011;4157;48.074;9.952;2024-01-27T00:42:16;6.20;;;3.50;;
8232;SDS011;4157;48.074;9.952;2024-01-27T00:44:49;7.72;;;3.55;;
8232;SDS011;4157;48.074;9.952;2024-01-27T00:47:17;5.90;;;3.72;;
8232;SDS011;4157;48.074;9.952;2024-01-27T00:49:46;5.63;;;3.50;;
8232;SDS011;4157;48.074;9.952;2024-01-27T00:52:13;6.60;;;3.42;;
8232;SDS011;4157;48.074;9.952;2024-01-27T00:54:41;9.23;;;5.20;;
8232;SDS011;4157;48.074;9.952;2024-01-27T00:57:09;5.50;;;3.28;;
8232;SDS011;4157;48.074;9.952;2024-01-27T00:59:36;5.70;;;2.88;;
8232;SDS011;4157;48.074;9.952;2024-01-27T01:02:04;4.85;;;2.65;;
8232;SDS011;4157;48.074;9.952;2024-01-27T01:04:32;5.18;;;3.10;;
8232;SDS011;4157;48.074;9.952;2024-01-27T01:07:01;5.88;;;2.85;;
8232;SDS011;4157;48.074;9.952;2024-01-27T01:09:29;6.43;;;3.13;;
8232;SDS011;4157;48.074;9.952;2024-01-27T01:11:56;7.40;;;3.55;;
8232;SDS011;4157;48.074;9.952;2024-01-27T01:14:24;7.15;;;3.50;;
8232;SDS011;4157;48.074;9.952;2024-01-27T01:16:52;5.30;;;3.50;;
8232;SDS011;4157;48.074;9.952;2024-01-27T01:19:19;5.38;;;3.50;;
8232;SDS011;4157;48.074;9.952;2024-01-27T01:21:47;7.07;;;3.72;;
8232;SDS011;4157;48.074;9.952;2024-01-27T01:24:16;5.50;;;3.40;;
8232;SDS011;4157;48.074;9.952;2024-01-27T01:26:44;7.88;;;3.97;;
8232;SDS011;4157;48.074;9.952;2024-01-27T01:29:11;6.97;;;3.33;;
8232;SDS011;4157;48.074;9.952;2024-01-27T01:31:41;7.20;;;4.50;;
8232;SDS011;4157;48.074;9.952;2024-01-27T01:34:09;7.22;;;3.63;;
8232;SDS011;4157;48.074;9.952;2024-01-27T01:36:36;5.18;;;3.30;;
8232;SDS011;4157;48.074;9.952;2024-01-27T01:39:04;6.50;;;3.35;;
8232;SDS011;4157;48.074;9.952;2024-01-27T01:41:33;6.00;;;3.10;;
8232;SDS011;4157;48.074;9.952;2024-01-27T01:44:01;6.10;;;3.25;;
8232;SDS011;4157;48.074;9.952;2024-01-27T01:46:28;5.72;;;3.88;;
8232;SDS011;4157;48.074;9.952;2024-01-27T01:48:56;5.35;;;3.47;;
8232;SDS011;4157;48.074;9.952;2024-01-27T01:51:25;6.00;;;3.38;;
8232;SDS011;4157;48.074;9.952;2024-01-27T01:53:54;9.57;;;4.60;;
8232;SDS011;4157;48.074;9.952;2024-01-27T01:56:24;7.47;;;4.22;;
8232;SDS011;4157;48.074;9.952;2024-01-27T01:58:54;5.63;;;3.85;;
8232;SDS011;4157;48.074;9.952;2024-01-27T02:01:22;8.85;;;4.10;;
8232;SDS011;4157;48.074;9.952;2024-01-27T02:03:52;5.22;;;3.20;;
8232;SDS011;4157;48.074;9.952;2024-01-27T02:06:20;6.30;;;3.22;;
8232;SDS011;4157;48.074;9.952;2024-01-27T02:08:48;6.80;;;3.63;;
8232;SDS011;4157;48.074;9.952;2024-01-27T02:11:16;8.68;;;4.30;;
8232;SDS011;4157;48.074;9.952;2024-01-27T02:13:44;7.32;;;3.30;;
8232;SDS011;4157;48.074;9.952;2024-01-27T02:16:13;6.97;;;3.85;;
8232;SDS011;4157;48.074;9.952;2024-01-27T02:18:43;5.95;;;3.67;;
8232;SDS011;4157;48.074;9.952;2024-01-27T02:21:11;6.78;;;3.90;;
8232;SDS011;4157;48.074;9.952;2024-01-27T02:23:38;6.82;;;3.70;;
8232;SDS011;4157;48.074;9.952;2024-01-27T02:26:07;6.55;;;3.85;;
8232;SDS011;4157;48.074;9.952;2024-01-27T02:28:35;7.65;;;4.28;;
8232;SDS011;4157;48.074;9.952;2024-01-27T02:31:03;7.47;;;4.95;;
8232;SDS011;4157;48.074;9.952;2024-01-27T02:33:31;10.15;;;5.22;;
8232;SDS011;4157;48.074;9.952;2024-01-27T02:35:58;7.45;;;4.82;;
8232;SDS011;4157;48.074;9.952;2024-01-27T02:38:26;8.35;;;3.50;;
8232;SDS011;4157;48.074;9.952;2024-01-27T02:40:54;6.57;;;3.75;;
8232;SDS011;4157;48.074;9.952;2024-01-27T02:43:23;11.45;;;5.22;;
8232;SDS011;4157;48.074;9.952;2024-01-27T02:45:50;6.57;;;3.90;;
8232;SDS011;4157;48.074;9.952;2024-01-27T02:48:18;7.20;;;3.83;;
8232;SDS011;4157;48.074;9.952;2024-01-27T02:50:46;8.63;;;5.22;;
8232;SDS011;4157;48.074;9.952;2024-01-27T02:53:14;8.52;;;5.00;;
8232;SDS011;4157;48.074;9.952;2024-01-27T02:55:41;6.55;;;3.63;;
8232;SDS011;4157;48.074;9.952;2024-01-27T02:58:09;6.40;;;3.80;;
8232;SDS011;4157;48.074;9.952;2024-01-27T03:00:38;8.60;;;5.20;;
8232;SDS011;4157;48.074;9.952;2024-01-27T03:03:06;8.80;;;5.38;;
8232;SDS011;4157;48.074;9.952;2024-01-27T03:05:34;8.25;;;4.88;;
8232;SDS011;4157;48.074;9.952;2024-01-27T03:08:01;9.82;;;4.65;;
8232;SDS011;4157;48.074;9.952;2024-01-27T03:10:29;6.13;;;4.03;;
8232;SDS011;4157;48.074;9.952;2024-01-27T03:12:57;7.45;;;4.30;;
8232;SDS011;4157;48.074;9.952;2024-01-27T03:15:24;8.88;;;5.25;;
8232;SDS011;4157;48.074;9.952;2024-01-27T03:17:53;8.02;;;4.93;;
8232;SDS011;4157;48.074;9.952;2024-01-27T03:20:21;9.57;;;5.68;;
8232;SDS011;4157;48.074;9.952;2024-01-27T03:22:49;7.90;;;4.60;;
8232;SDS011;4157;48.074;9.952;2024-01-27T03:25:17;8.77;;;4.68;;
8232;SDS011;4157;48.074;9.952;2024-01-27T03:27:44;7.60;;;4.40;;
8232;SDS011;4157;48.074;9.952;2024-01-27T03:30:12;7.53;;;5.00;;
8232;SDS011;4157;48.074;9.952;2024-01-27T03:32:40;7.85;;;5.55;;
8232;SDS011;4157;48.074;9.952;2024-01-27T03:35:09;9.40;;;4.68;;
8232;SDS011;4157;48.074;9.952;2024-01-27T03:37:37;7.35;;;4.80;;
8232;SDS011;4157;48.074;9.952;2024-01-27T03:40:05;7.10;;;4.10;;
8232;SDS011;4157;48.074;9.952;2024-01-27T03:42:34;6.05;;;3.60;;
8232;SDS011;4157;48.074;9.952;2024-01-27T03:45:01;9.93;;;4.65;;
8232;SDS011;4157;48.074;9.952;2024-01-27T03:47:29;8.40;;;5.25;;
8232;SDS011;4157;48.074;9.952;2024-01-27T03:49:57;8.88;;;6.20;;
8232;SDS011;4157;48.074;9.952;2024-01-27T03:52:26;7.82;;;6.05;;
8232;SDS011;4157;48.074;9.952;2024-01-27T03:54:53;8.32;;;5.00;;
8232;SDS011;4157;48.074;9.952;2024-01-27T03:57:21;6.50;;;4.55;;
8232;SDS011;4157;48.074;9.952;2024-01-27T03:59:49;6.97;;;4.32;;
8232;SDS011;4157;48.074;9.952;2024-01-27T04:02:16;6.78;;;3.78;;
8232;SDS011;4157;48.074;9.952;2024-01-27T04:04:44;9.25;;;5.68;;
8232;SDS011;4157;48.074;9.952;2024-01-27T04:07:12;7.22;;;3.80;;
8232;SDS011;4157;48.074;9.952;2024-01-27T04:09:41;7.80;;;4.85;;
8232;SDS011;4157;48.074;9.952;2024-01-27T04:12:09;8.13;;;4.90;;
8232;SDS011;4157;48.074;9.952;2024-01-27T04:14:36;8.88;;;5.93;;
8232;SDS011;4157;48.074;9.952;2024-01-27T04:17:04;7.88;;;5.20;;
8232;SDS011;4157;48.074;9.952;2024-01-27T04:19:32;7.82;;;4.70;;
8232;SDS011;4157;48.074;9.952;2024-01-27T04:21:59;9.05;;;5.97;;
8232;SDS011;4157;48.074;9.952;2024-01-27T04:24:27;9.18;;;4.93;;
8232;SDS011;4157;48.074;9.952;2024-01-27T04:26:56;8.70;;;5.10;;
8232;SDS011;4157;48.074;9.952;2024-01-27T04:29:24;7.85;;;4.82;;
8232;SDS011;4157;48.074;9.952;2024-01-27T04:31:52;9.90;;;4.95;;
8232;SDS011;4157;48.074;9.952;2024-01-27T04:34:19;5.25;;;3.10;;
8232;SDS011;4157;48.074;9.952;2024-01-27T04:36:47;8.20;;;5.07;;
8232;SDS011;4157;48.074;9.952;2024-01-27T04:39:15;6.63;;;4.35;;
8232;SDS011;4157;48.074;9.952;2024-01-27T04:41:42;6.55;;;4.60;;
8232;SDS011;4157;48.074;9.952;2024-01-27T04:44:12;5.25;;;2.88;;
8232;SDS011;4157;48.074;9.952;2024-01-27T04:46:39;8.80;;;5.15;;
8232;SDS011;4157;48.074;9.952;2024-01-27T04:49:07;7.15;;;4.30;;
8232;SDS011;4157;48.074;9.952;2024-01-27T04:51:35;6.50;;;4.38;;
8232;SDS011;4157;48.074;9.952;2024-01-27T04:54:02;7.72;;;4.75;;
8232;SDS011;4157;48.074;9.952;2024-01-27T04:56:30;7.32;;;4.32;;
8232;SDS011;4157;48.074;9.952;2024-01-27T04:58:58;7.05;;;4.85;;
8232;SDS011;4157;48.074;9.952;2024-01-27T05:01:27;7.03;;;3.22;;
8232;SDS011;4157;48.074;9.952;2024-01-27T05:03:55;8.52;;;3.40;;
8232;SDS011;4157;48.074;9.952;2024-01-27T05:06:22;6.85;;;3.03;;
8232;SDS011;4157;48.074;9.952;2024-01-27T05:08:50;6.85;;;4.57;;
8232;SDS011;4157;48.074;9.952;2024-01-27T05:11:24;6.85;;;4.90;;
8232;SDS011;4157;48.074;9.952;2024-01-27T05:13:52;7.32;;;5.00;;
8232;SDS011;4157;48.074;9.952;2024-01-27T05:16:20;7.72;;;4.30;;
8232;SDS011;4157;48.074;9.952;2024-01-27T05:18:49;8.43;;;5.15;;
8232;SDS011;4157;48.074;9.952;2024-01-27T05:21:17;7.00;;;3.47;;
8232;SDS011;4157;48.074;9.952;2024-01-27T05:23:44;5.70;;;2.97;;
8232;SDS011;4157;48.074;9.952;2024-01-27T05:26:12;7.50;;;3.85;;
8232;SDS011;4157;48.074;9.952;2024-01-27T05:28:40;5.95;;;3.10;;
8232;SDS011;4157;48.074;9.952;2024-01-27T05:31:07;10.55;;;6.32;;
8232;SDS011;4157;48.074;9.952;2024-01-27T05:33:35;7.05;;;3.83;;
8232;SDS011;4157;48.074;9.952;2024-01-27T05:36:05;7.57;;;5.60;;
8232;SDS011;4157;48.074;9.952;2024-01-27T05:38:32;8.95;;;6.35;;
8232;SDS011;4157;48.074;9.952;2024-01-27T05:41:00;5.82;;;3.17;;
8232;SDS011;4157;48.074;9.952;2024-01-27T05:43:28;7.28;;;3.80;;
8232;SDS011;4157;48.074;9.952;2024-01-27T05:45:55;7.35;;;3.00;;
8232;SDS011;4157;48.074;9.952;2024-01-27T05:48:23;8.40;;;5.07;;
8232;SDS011;4157;48.074;9.952;2024-01-27T05:50:54;6.60;;;4.22;;
8232;SDS011;4157;48.074;9.952;2024-01-27T05:53:23;8.60;;;5.63;;
8232;SDS011;4157;48.074;9.952;2024-01-27T05:55:51;7.93;;;5.13;;
8232;SDS011;4157;48.074;9.952;2024-01-27T05:58:19;7.90;;;4.03;;
8232;SDS011;4157;48.074;9.952;2024-01-27T06:00:47;8.38;;;5.28;;
8232;SDS011;4157;48.074;9.952;2024-01-27T06:03:15;9.38;;;6.00;;
8232;SDS011;4157;48.074;9.952;2024-01-27T06:05:43;9.05;;;4.25;;
8232;SDS011;4157;48.074;9.952;2024-01-27T06:08:11;9.70;;;4.75;;
8232;SDS011;4157;48.074;9.952;2024-01-27T06:10:40;11.95;;;4.70;;
8232;SDS011;4157;48.074;9.952;2024-01-27T06:13:07;11.70;;;7.13;;
8232;SDS011;4157;48.074;9.952;2024-01-27T06:15:35;9.63;;;4.50;;
8232;SDS011;4157;48.074;9.952;2024-01-27T06:18:03;8.23;;;4.25;;
8232;SDS011;4157;48.074;9.952;2024-01-27T06:20:31;10.95;;;6.13;;
8232;SDS011;4157;48.074;9.952;2024-01-27T06:22:59;9.02;;;6.07;;
8232;SDS011;4157;48.074;9.952;2024-01-27T06:25:26;9.13;;;4.60;;
8232;SDS011;4157;48.074;9.952;2024-01-27T06:27:55;10.13;;;7.53;;
8232;SDS011;4157;48.074;9.952;2024-01-27T06:30:23;11.18;;;6.30;;
8232;SDS011;4157;48.074;9.952;2024-01-27T06:32:51;8.65;;;5.20;;
8232;SDS011;4157;48.074;9.952;2024-01-27T06:35:19;13.00;;;4.05;;
8232;SDS011;4157;48.074;9.952;2024-01-27T06:37:46;7.00;;;4.25;;
8232;SDS011;4157;48.074;9.952;2024-01-27T06:40:16;8.60;;;4.45;;
8232;SDS011;4157;48.074;9.952;2024-01-27T06:42:44;8.73;;;5.93;;
8232;SDS011;4157;48.074;9.952;2024-01-27T06:45:13;11.43;;;4.13;;
8232;SDS011;4157;48.074;9.952;2024-01-27T06:47:40;7.95;;;3.90;;
8232;SDS011;4157;48.074;9.952;2024-01-27T06:50:08;7.95;;;5.68;;
8232;SDS011;4157;48.074;9.952;2024-01-27T06:52:36;10.27;;;4.85;;
8232;SDS011;4157;48.074;9.952;2024-01-27T06:55:04;8.98;;;6.47;;
8232;SDS011;4157;48.074;9.952;2024-01-27T06:57:32;7.25;;;3.72;;
8232;SDS011;4157;48.074;9.952;2024-01-27T07:00:00;9.75;;;4.72;;
8232;SDS011;4157;48.074;9.952;2024-01-27T07:02:29;11.95;;;8.90;;
8232;SDS011;4157;48.074;9.952;2024-01-27T07:04:57;15.52;;;5.95;;
8232;SDS011;4157;48.074;9.952;2024-01-27T07:07:25;9.50;;;5.78;;
8232;SDS011;4157;48.074;9.952;2024-01-27T07:09:54;12.35;;;6.20;;
8232;SDS011;4157;48.074;9.952;2024-01-27T07:12:22;12.18;;;9.27;;
8232;SDS011;4157;48.074;9.952;2024-01-27T07:14:50;15.82;;;8.00;;
8232;SDS011;4157;48.074;9.952;2024-01-27T07:17:17;16.38;;;8.40;;
8232;SDS011;4157;48.074;9.952;2024-01-27T07:19:46;20.13;;;14.13;;
8232;SDS011;4157;48.074;9.952;2024-01-27T07:22:14;13.55;;;7.90;;
8232;SDS011;4157;48.074;9.952;2024-01-27T07:24:42;14.88;;;12.00;;
8232;SDS011;4157;48.074;9.952;2024-01-27T07:27:11;17.00;;;9.57;;
8232;SDS011;4157;48.074;9.952;2024-01-27T07:29:39;14.70;;;10.98;;
8232;SDS011;4157;48.074;9.952;2024-01-27T07:32:07;14.43;;;9.38;;
8232;SDS011;4157;48.074;9.952;2024-01-27T07:34:39;13.05;;;8.32;;
8232;SDS011;4157;48.074;9.952;2024-01-27T07:37:09;13.00;;;10.75;;
8232;SDS011;4157;48.074;9.952;2024-01-27T07:39:36;14.00;;;7.05;;
8232;SDS011;4157;48.074;9.952;2024-01-27T07:42:04;12.93;;;10.75;;
8232;SDS011;4157;48.074;9.952;2024-01-27T07:44:32;13.10;;;9.95;;
8232;SDS011;4157;48.074;9.952;2024-01-27T07:47:00;13.77;;;11.60;;
8232;SDS011;4157;48.074;9.952;2024-01-27T07:49:27;14.48;;;7.70;;
8232;SDS011;4157;48.074;9.952;2024-01-27T07:51:55;18.80;;;9.48;;
8232;SDS011;4157;48.074;9.952;2024-01-27T07:54:24;17.08;;;8.70;;
8232;SDS011;4157;48.074;9.952;2024-01-27T07:56:52;16.90;;;12.57;;
8232;SDS011;4157;48.074;9.952;2024-01-27T07:59:19;18.20;;;13.52;;
8232;SDS011;4157;48.074;9.952;2024-01-27T08:01:47;18.88;;;9.10;;
8232;SDS011;4157;48.074;9.952;2024-01-27T08:04:15;17.13;;;9.13;;
8232;SDS011;4157;48.074;9.952;2024-01-27T08:06:46;15.02;;;12.05;;
8232;SDS011;4157;48.074;9.952;2024-01-27T08:09:14;12.93;;;7.75;;
8232;SDS011;4157;48.074;9.952;2024-01-27T08:11:43;14.20;;;7.43;;
8232;SDS011;4157;48.074;9.952;2024-01-27T08:14:11;15.43;;;12.10;;
8232;SDS011;4157;48.074;9.952;2024-01-27T08:16:38;15.32;;;8.20;;
8232;SDS011;4157;48.074;9.952;2024-01-27T08:19:06;19.05;;;8.57;;
8232;SDS011;4157;48.074;9.952;2024-01-27T08:21:34;21.92;;;13.95;;
8232;SDS011;4157;48.074;9.952;2024-01-27T08:24:02;14.95;;;8.32;;
8232;SDS011;4157;48.074;9.952;2024-01-27T08:26:29;14.52;;;7.30;;
8232;SDS011;4157;48.074;9.952;2024-01-27T08:28:58;13.60;;;10.88;;
8232;SDS011;4157;48.074;9.952;2024-01-27T08:31:26;10.88;;;6.80;;
8232;SDS011;4157;48.074;9.952;2024-01-27T08:33:54;15.65;;;10.88;;
8232;SDS011;4157;48.074;9.952;2024-01-27T08:36:21;13.73;;;9.82;;
8232;SDS011;4157;48.074;9.952;2024-01-27T08:38:49;13.02;;;9.20;;
8232;SDS011;4157;48.074;9.952;2024-01-27T08:41:17;12.98;;;9.00;;
8232;SDS011;4157;48.074;9.952;2024-01-27T08:43:45;13.07;;;9.52;;
8232;SDS011;4157;48.074;9.952;2024-01-27T08:46:14;14.77;;;10.00;;
8232;SDS011;4157;48.074;9.952;2024-01-27T08:48:44;13.40;;;10.52;;
8232;SDS011;4157;48.074;9.952;2024-01-27T08:51:11;16.42;;;9.80;;
8232;SDS011;4157;48.074;9.952;2024-01-27T08:53:41;17.42;;;12.48;;
8232;SDS011;4157;48.074;9.952;2024-01-27T08:56:14;16.10;;;11.30;;
8232;SDS011;4157;48.074;9.952;2024-01-27T08:58:43;15.02;;;10.05;;
8232;SDS011;4157;48.074;9.952;2024-01-27T09:01:15;15.02;;;8.95;;
8232;SDS011;4157;48.074;9.952;2024-01-27T09:03:43;13.65;;;10.07;;
8232;SDS011;4157;48.074;9.952;2024-01-27T09:06:10;11.65;;;8.60;;
8232;SDS011;4157;48.074;9.952;2024-01-27T09:08:38;12.55;;;8.75;;
8232;SDS011;4157;48.074;9.952;2024-01-27T09:11:06;14.43;;;10.02;;
8232;SDS011;4157;48.074;9.952;2024-01-27T09:13:34;15.30;;;10.20;;
8232;SDS011;4157;48.074;9.952;2024-01-27T09:16:02;14.73;;;9.88;;
8232;SDS011;4157;48.074;9.952;2024-01-27T09:18:31;12.27;;;8.10;;
8232;SDS011;4157;48.074;9.952;2024-01-27T09:20:59;11.35;;;7.55;;
8232;SDS011;4157;48.074;9.952;2024-01-27T09:23:27;12.57;;;7.88;;
8232;SDS011;4157;48.074;9.952;2024-01-27T09:25:54;11.65;;;7.80;;
8232;SDS011;4157;48.074;9.952;2024-01-27T09:28:22;13.00;;;8.73;;
8232;SDS011;4157;48.074;9.952;2024-01-27T09:30:50;12.35;;;9.02;;
8232;SDS011;4157;48.074;9.952;2024-01-27T09:33:18;12.55;;;9.07;;
8232;SDS011;4157;48.074;9.952;2024-01-27T09:35:50;14.80;;;9.63;;
8232;SDS011;4157;48.074;9.952;2024-01-27T09:38:17;11.43;;;7.60;;
8232;SDS011;4157;48.074;9.952;2024-01-27T09:40:45;13.75;;;7.75;;
8232;SDS011;4157;48.074;9.952;2024-01-27T09:43:13;12.45;;;8.00;;
8232;SDS011;4157;48.074;9.952;2024-01-27T09:45:41;9.55;;;6.57;;
8232;SDS011;4157;48.074;9.952;2024-01-27T09:48:08;11.27;;;7.00;;
8232;SDS011;4157;48.074;9.952;2024-01-27T09:50:37;14.82;;;6.30;;
8232;SDS011;4157;48.074;9.952;2024-01-27T09:53:07;9.57;;;4.78;;
8232;SDS011;4157;48.074;9.952;2024-01-27T09:55:35;12.18;;;5.68;;
8232;SDS011;4157;48.074;9.952;2024-01-27T09:58:03;11.77;;;4.43;;
8232;SDS011;4157;48.074;9.952;2024-01-27T10:00:31;11.18;;;4.68;;
8232;SDS011;4157;48.074;9.952;2024-01-27T10:02:59;9.50;;;4.30;;
8232;SDS011;4157;48.074;9.952;2024-01-27T10:05:28;10.35;;;5.40;;
8232;SDS011;4157;48.074;9.952;2024-01-27T10:07:56;10.02;;;5.22;;
8232;SDS011;4157;48.074;9.952;2024-01-27T10:10:25;9.95;;;4.90;;
8232;SDS011;4157;48.074;9.952;2024-01-27T10:12:53;9.38;;;4.57;;
8232;SDS011;4157;48.074;9.952;2024-01-27T10:15:24;11.18;;;4.60;;
8232;SDS011;4157;48.074;9.952;2024-01-27T10:17:53;9.60;;;5.07;;
8232;SDS011;4157;48.074;9.952;2024-01-27T10:20:20;8.38;;;4.45;;
8232;SDS011;4157;48.074;9.952;2024-01-27T10:22:48;10.10;;;4.82;;
8232;SDS011;4157;48.074;9.952;2024-01-27T10:25:16;9.50;;;4.80;;
8232;SDS011;4157;48.074;9.952;2024-01-27T10:27:45;7.65;;;4.10;;
8232;SDS011;4157;48.074;9.952;2024-01-27T10:30:15;10.15;;;4.50;;
8232;SDS011;4157;48.074;9.952;2024-01-27T10:32:43;8.32;;;3.88;;
8232;SDS011;4157;48.074;9.952;2024-01-27T10:35:10;7.30;;;3.88;;
8232;SDS011;4157;48.074;9.952;2024-01-27T10:37:38;10.00;;;4.53;;
8232;SDS011;4157;48.074;9.952;2024-01-27T10:40:07;10.10;;;4.50;;
8232;SDS011;4157;48.074;9.952;2024-01-27T10:42:35;8.80;;;3.88;;
8232;SDS011;4157;48.074;9.952;2024-01-27T10:45:05;8.85;;;3.92;;
8232;SDS011;4157;48.074;9.952;2024-01-27T10:47:32;9.52;;;4.00;;
8232;SDS011;4157;48.074;9.952;2024-01-27T10:50:00;10.13;;;4.00;;
8232;SDS011;4157;48.074;9.952;2024-01-27T10:52:31;9.27;;;3.60;;
8232;SDS011;4157;48.074;9.952;2024-01-27T10:54:59;7.88;;;3.25;;
8232;SDS011;4157;48.074;9.952;2024-01-27T10:57:29;10.73;;;3.83;;
8232;SDS011;4157;48.074;9.952;2024-01-27T10:59:57;7.50;;;3.63;;
8232;SDS011;4157;48.074;9.952;2024-01-27T11:02:27;8.90;;;3.67;;
8232;SDS011;4157;48.074;9.952;2024-01-27T11:04:55;6.82;;;2.95;;
8232;SDS011;4157;48.074;9.952;2024-01-27T11:07:23;7.63;;;2.83;;
8232;SDS011;4157;48.074;9.952;2024-01-27T11:09:51;7.00;;;2.80;;
8232;SDS011;4157;48.074;9.952;2024-01-27T11:12:19;9.40;;;3.28;;
8232;SDS011;4157;48.074;9.952;2024-01-27T11:14:47;7.68;;;3.53;;
8232;SDS011;4157;48.074;9.952;2024-01-27T11:17:15;9.77;;;3.90;;
8232;SDS011;4157;48.074;9.952;2024-01-27T11:19:45;8.93;;;3.30;;
8232;SDS011;4157;48.074;9.952;2024-01-27T11:22:23;7.78;;;3.05;;
8232;SDS011;4157;48.074;9.952;2024-01-27T11:24:52;11.95;;;5.93;;
8232;SDS011;4157;48.074;9.952;2024-01-27T11:27:26;10.95;;;4.15;;
8232;SDS011;4157;48.074;9.952;2024-01-27T11:29:55;5.75;;;2.40;;
8232;SDS011;4157;48.074;9.952;2024-01-27T11:32:23;8.27;;;2.03;;
8232;SDS011;4157;48.074;9.952;2024-01-27T11:34:52;8.07;;;2.55;;
8232;SDS011;4157;48.074;9.952;2024-01-27T11:37:20;6.03;;;2.47;;
8232;SDS011;4157;48.074;9.952;2024-01-27T11:39:50;10.05;;;3.40;;
8232;SDS011;4157;48.074;9.952;2024-01-27T11:42:18;6.88;;;2.40;;
8232;SDS011;4157;48.074;9.952;2024-01-27T11:44:46;10.13;;;3.00;;
8232;SDS011;4157;48.074;9.952;2024-01-27T11:47:15;8.18;;;2.90;;
8232;SDS011;4157;48.074;9.952;2024-01-27T11:49:43;8.38;;;3.00;;
8232;SDS011;4157;48.074;9.952;2024-01-27T11:52:12;7.30;;;2.78;;
8232;SDS011;4157;48.074;9.952;2024-01-27T11:54:39;7.40;;;2.38;;
8232;SDS011;4157;48.074;9.952;2024-01-27T11:57:07;6.68;;;1.92;;
8232;SDS011;4157;48.074;9.952;2024-01-27T11:59:35;7.22;;;1.85;;
8232;SDS011;4157;48.074;9.952;2024-01-27T12:02:03;9.13;;;2.78;;
8232;SDS011;4157;48.074;9.952;2024-01-27T12:04:30;8.90;;;2.78;;
8232;SDS011;4157;48.074;9.952;2024-01-27T12:06:59;7.07;;;3.00;;
8232;SDS011;4157;48.074;9.952;2024-01-27T12:09:28;9.32;;;3.10;;
8232;SDS011;4157;48.074;9.952;2024-01-27T12:11:55;8.77;;;3.22;;
8232;SDS011;4157;48.074;9.952;2024-01-27T12:14:23;6.00;;;3.03;;
8232;SDS011;4157;48.074;9.952;2024-01-27T12:16:51;9.73;;;3.17;;
8232;SDS011;4157;48.074;9.952;2024-01-27T12:19:20;9.93;;;3.03;;
8232;SDS011;4157;48.074;9.952;2024-01-27T12:21:47;10.02;;;3.33;;
8232;SDS011;4157;48.074;9.952;2024-01-27T12:24:15;5.53;;;2.70;;
8232;SDS011;4157;48.074;9.952;2024-01-27T12:26:45;7.88;;;3.05;;
8232;SDS011;4157;48.074;9.952;2024-01-27T12:29:12;6.90;;;3.10;;
8232;SDS011;4157;48.074;9.952;2024-01-27T12:31:40;8.02;;;3.05;;
8232;SDS011;4157;48.074;9.952;2024-01-27T12:34:09;7.32;;;3.20;;
8232;SDS011;4157;48.074;9.952;2024-01-27T12:36:40;5.68;;;2.75;;
8232;SDS011;4157;48.074;9.952;2024-01-27T12:39:08;7.65;;;2.90;;
8232;SDS011;4157;48.074;9.952;2024-01-27T12:41:36;8.02;;;2.85;;
8232;SDS011;4157;48.074;9.952;2024-01-27T12:44:05;8.27;;;2.70;;
8232;SDS011;4157;48.074;9.952;2024-01-27T12:46:33;7.47;;;2.72;;
8232;SDS011;4157;48.074;9.952;2024-01-27T12:49:01;8.18;;;3.13;;
8232;SDS011;4157;48.074;9.952;2024-01-27T12:51:30;7.80;;;2.95;;
8232;SDS011;4157;48.074;9.952;2024-01-27T12:53:57;8.35;;;2.72;;
8232;SDS011;4157;48.074;9.952;2024-01-27T12:56:25;6.45;;;2.97;;
8232;SDS011;4157;48.074;9.952;2024-01-27T12:58:53;7.93;;;2.70;;
8232;SDS011;4157;48.074;9.952;2024-01-27T13:01:22;7.60;;;2.70;;
8232;SDS011;4157;48.074;9.952;2024-01-27T13:03:49;5.72;;;2.22;;
8232;SDS011;4157;48.074;9.952;2024-01-27T13:06:17;6.63;;;2.45;;
8232;SDS011;4157;48.074;9.952;2024-01-27T13:08:46;6.20;;;2.38;;
8232;SDS011;4157;48.074;9.952;2024-01-27T13:11:13;7.28;;;2.75;;
8232;SDS011;4157;48.074;9.952;2024-01-27T13:13:41;7.40;;;2.78;;
8232;SDS011;4157;48.074;9.952;2024-01-27T13:16:09;7.65;;;2.85;;
8232;SDS011;4157;48.074;9.952;2024-01-27T13:18:38;4.35;;;2.10;;
8232;SDS011;4157;48.074;9.952;2024-01-27T13:21:06;5.65;;;2.28;;
8232;SDS011;4157;48.074;9.952;2024-01-27T13:23:34;6.65;;;2.47;;
8232;SDS011;4157;48.074;9.952;2024-01-27T13:26:01;6.15;;;2.40;;
8232;SDS011;4157;48.074;9.952;2024-01-27T13:28:29;6.35;;;2.78;;
8232;SDS011;4157;48.074;9.952;2024-01-27T13:30:57;6.47;;;2.55;;
8232;SDS011;4157;48.074;9.952;2024-01-27T13:33:25;6.38;;;2.63;;
8232;SDS011;4157;48.074;9.952;2024-01-27T13:35:55;7.55;;;2.78;;
8232;SDS011;4157;48.074;9.952;2024-01-27T13:38:23;7.32;;;3.13;;
8232;SDS011;4157;48.074;9.952;2024-01-27T13:40:51;8.30;;;2.75;;
8232;SDS011;4157;48.074;9.952;2024-01-27T13:43:19;6.63;;;2.88;;
8232;SDS011;4157;48.074;9.952;2024-01-27T13:45:47;5.93;;;2.60;;
8232;SDS011;4157;48.074;9.952;2024-01-27T13:48:16;7.72;;;2.45;;
8232;SDS011;4157;48.074;9.952;2024-01-27T13:50:44;9.18;;;2.78;;
8232;SDS011;4157;48.074;9.952;2024-01-27T13:53:13;8.60;;;2.78;;
8232;SDS011;4157;48.074;9.952;2024-01-27T13:55:41;10.00;;;3.13;;
8232;SDS011;4157;48.074;9.952;2024-01-27T13:58:10;7.57;;;3.00;;
8232;SDS011;4157;48.074;9.952;2024-01-27T14:00:37;7.05;;;2.50;;
8232;SDS011;4157;48.074;9.952;2024-01-27T14:03:05;6.38;;;2.47;;
8232;SDS011;4157;48.074;9.952;2024-01-27T14:05:33;6.53;;;2.65;;
8232;SDS011;4157;48.074;9.952;2024-01-27T14:08:00;7.05;;;2.80;;
8232;SDS011;4157;48.074;9.952;2024-01-27T14:10:31;6.70;;;2.75;;
8232;SDS011;4157;48.074;9.952;2024-01-27T14:12:59;7.13;;;2.70;;
8232;SDS011;4157;48.074;9.952;2024-01-27T14:15:28;6.53;;;2.45;;
8232;SDS011;4157;48.074;9.952;2024-01-27T14:17:56;7.50;;;3.17;;
8232;SDS011;4157;48.074;9.952;2024-01-27T14:20:23;6.95;;;2.78;;
8232;SDS011;4157;48.074;9.952;2024-01-27T14:22:54;8.90;;;2.83;;
8232;SDS011;4157;48.074;9.952;2024-01-27T14:25:23;7.70;;;3.05;;
8232;SDS011;4157;48.074;9.952;2024-01-27T14:27:52;7.78;;;3.10;;
8232;SDS011;4157;48.074;9.952;2024-01-27T14:30:20;7.90;;;3.05;;
8232;SDS011;4157;48.074;9.952;2024-01-27T14:32:49;5.35;;;2.67;;
8232;SDS011;4157;48.074;9.952;2024-01-27T14:35:17;7.47;;;3.10;;
8232;SDS011;4157;48.074;9.952;2024-01-27T14:37:45;6.97;;;2.80;;
8232;SDS011;4157;48.074;9.952;2024-01-27T14:40:13;5.95;;;2.63;;
8232;SDS011;4157;48.074;9.952;2024-01-27T14:42:40;6.80;;;2.85;;
8232;SDS011;4157;48.074;9.952;2024-01-27T14:45:12;8.00;;;2.95;;
8232;SDS011;4157;48.074;9.952;2024-01-27T14:47:40;10.30;;;3.38;;
8232;SDS011;4157;48.074;9.952;2024-01-27T14:50:08;5.72;;;2.85;;
8232;SDS011;4157;48.074;9.952;2024-01-27T14:52:36;6.47;;;2.90;;
8232;SDS011;4157;48.074;9.952;2024-01-27T14:55:04;7.82;;;3.40;;
8232;SDS011;4157;48.074;9.952;2024-01-27T14:57:33;6.65;;;3.03;;
8232;SDS011;4157;48.074;9.952;2024-01-27T15:00:01;7.55;;;3.30;;
8232;SDS011;4157;48.074;9.952;2024-01-27T15:02:32;6.82;;;3.08;;
8232;SDS011;4157;48.074;9.952;2024-01-27T15:05:00;6.15;;;2.50;;
8232;SDS011;4157;48.074;9.952;2024-01-27T15:07:28;8.00;;;3.22;;
8232;SDS011;4157;48.074;9.952;2024-01-27T15:09:56;9.13;;;3.53;;
8232;SDS011;4157;48.074;9.952;2024-01-27T15:12:24;10.18;;;4.07;;
8232;SDS011;4157;48.074;9.952;2024-01-27T15:14:52;8.50;;;3.85;;